sensor_id;sensor_type;location;lat;lon;timestamp;pressure;altitude;pressure_sealevel;temperature;humidity
60319;BME280;46163;52.306;5.634;2023-07-31T00:00:32;100791.38;;;14.47;96.97
60319;BME280;46163;52.306;5.634;2023-07-31T00:03:00;100792.00;;;14.42;98.19
60319;BME280;46163;52.306;5.634;2023-07-31T00:05:25;100799.03;;;14.43;97.74
60319;BME280;46163;52.306;5.634;2023-07-31T00:07:51;100782.56;;;14.39;98.21
60319;BME280;46163;52.306;5.634;2023-07-31T00:10:17;100789.75;;;14.46;98.76
60319;BME280;46163;52.306;5.634;2023-07-31T00:12:44;100776.19;;;14.40;98.68
60319;BME280;46163;52.306;5.634;2023-07-31T00:15:13;100785.78;;;14.48;98.65
60319;BME280;46163;52.306;5.634;2023-07-31T00:17:39;100771.19;;;14.44;98.55
60319;BME280;46163;52.306;5.634;2023-07-31T00:20:04;100785.13;;;14.53;99.30
60319;BME280;46163;52.306;5.634;2023-07-31T00:22:30;100761.44;;;14.50;99.07
60319;BME280;46163;52.306;5.634;2023-07-31T00:24:56;100768.34;;;14.57;98.68
60319;BME280;46163;52.306;5.634;2023-07-31T00:27:24;100763.56;;;14.59;98.68
60319;BME280;46163;52.306;5.634;2023-07-31T00:29:50;100765.94;;;14.67;98.21
60319;BME280;46163;52.306;5.634;2023-07-31T00:32:15;100767.13;;;14.72;99.16
60319;BME280;46163;52.306;5.634;2023-07-31T00:34:40;100772.47;;;14.72;99.04
60319;BME280;46163;52.306;5.634;2023-07-31T00:37:06;100778.41;;;14.74;99.17
60319;BME280;46163;52.306;5.634;2023-07-31T00:39:34;100770.03;;;14.70;98.72
60319;BME280;46163;52.306;5.634;2023-07-31T00:41:59;100762.81;;;14.70;99.00
60319;BME280;46163;52.306;5.634;2023-07-31T00:44:25;100757.44;;;14.70;98.78
60319;BME280;46163;52.306;5.634;2023-07-31T00:46:50;100755.59;;;14.71;99.42
60319;BME280;46163;52.306;5.634;2023-07-31T00:49:16;100758.28;;;14.83;99.83
60319;BME280;46163;52.306;5.634;2023-07-31T00:51:42;100766.22;;;14.78;99.22
60319;BME280;46163;52.306;5.634;2023-07-31T00:54:07;100754.88;;;14.76;99.43
60319;BME280;46163;52.306;5.634;2023-07-31T00:56:33;100766.91;;;14.85;99.48
60319;BME280;46163;52.306;5.634;2023-07-31T00:58:58;100743.50;;;14.80;99.49
60319;BME280;46163;52.306;5.634;2023-07-31T01:01:24;100748.28;;;14.90;99.96
60319;BME280;46163;52.306;5.634;2023-07-31T01:03:51;100741.03;;;14.79;99.70
60319;BME280;46163;52.306;5.634;2023-07-31T01:09:37;100752.81;;;14.89;100.00
60319;BME280;46163;52.306;5.634;2023-07-31T01:12:04;100752.97;;;14.94;100.00
60319;BME280;46163;52.306;5.634;2023-07-31T01:14:32;100759.94;;;14.95;100.00
60319;BME280;46163;52.306;5.634;2023-07-31T01:16:57;100748.50;;;15.00;100.00
60319;BME280;46163;52.306;5.634;2023-07-31T01:19:24;100750.03;;;14.96;100.00
60319;BME280;46163;52.306;5.634;2023-07-31T01:22:21;100741.63;;;14.92;100.00
60319;BME280;46163;52.306;5.634;2023-07-31T01:25:05;100748.50;;;15.00;100.00
60319;BME280;46163;52.306;5.634;2023-07-31T01:27:44;100744.69;;;14.96;100.00
60319;BME280;46163;52.306;5.634;2023-07-31T01:30:16;100740.25;;;15.02;100.00
60319;BME280;46163;52.306;5.634;2023-07-31T01:32:45;100743.88;;;15.07;100.00
60319;BME280;46163;52.306;5.634;2023-07-31T01:35:12;100731.53;;;15.06;100.00
60319;BME280;46163;52.306;5.634;2023-07-31T01:37:38;100735.97;;;15.12;100.00
60319;BME280;46163;52.306;5.634;2023-07-31T01:40:04;100727.78;;;15.07;100.00
60319;BME280;46163;52.306;5.634;2023-07-31T01:42:30;100738.16;;;15.15;100.00
60319;BME280;46163;52.306;5.634;2023-07-31T01:44:55;100729.53;;;15.13;100.00
60319;BME280;46163;52.306;5.634;2023-07-31T01:47:20;100722.31;;;15.14;100.00
60319;BME280;46163;52.306;5.634;2023-07-31T01:49:46;100729.41;;;15.20;100.00
60319;BME280;46163;52.306;5.634;2023-07-31T01:52:11;100725.78;;;15.26;100.00
60319;BME280;46163;52.306;5.634;2023-07-31T01:54:39;100723.94;;;15.26;100.00
60319;BME280;46163;52.306;5.634;2023-07-31T01:57:04;100728.84;;;15.30;100.00
60319;BME280;46163;52.306;5.634;2023-07-31T01:59:30;100706.91;;;15.33;100.00
60319;BME280;46163;52.306;5.634;2023-07-31T02:01:58;100698.06;;;15.32;100.00
60319;BME280;46163;52.306;5.634;2023-07-31T02:04:23;100705.03;;;15.33;100.00
60319;BME280;46163;52.306;5.634;2023-07-31T02:06:52;100712.97;;;15.40;100.00
60319;BME280;46163;52.306;5.634;2023-07-31T02:09:18;100713.31;;;15.43;100.00
60319;BME280;46163;52.306;5.634;2023-07-31T02:11:43;100702.00;;;15.41;100.00
60319;BME280;46163;52.306;5.634;2023-07-31T02:14:08;100703.41;;;15.44;100.00
60319;BME280;46163;52.306;5.634;2023-07-31T02:16:34;100689.66;;;15.40;100.00
60319;BME280;46163;52.306;5.634;2023-07-31T02:18:59;100689.97;;;15.44;100.00
60319;BME280;46163;52.306;5.634;2023-07-31T02:21:25;100679.97;;;15.39;100.00
60319;BME280;46163;52.306;5.634;2023-07-31T02:23:50;100674.38;;;15.41;100.00
60319;BME280;46163;52.306;5.634;2023-07-31T02:26:15;100677.06;;;15.41;100.00
60319;BME280;46163;52.306;5.634;2023-07-31T02:28:43;100667.84;;;15.37;100.00
60319;BME280;46163;52.306;5.634;2023-07-31T02:31:09;100672.38;;;15.36;100.00
60319;BME280;46163;52.306;5.634;2023-07-31T02:33:34;100676.00;;;15.42;100.00
60319;BME280;46163;52.306;5.634;2023-07-31T02:36:00;100681.38;;;15.42;100.00
60319;BME280;46163;52.306;5.634;2023-07-31T02:38:25;100680.88;;;15.45;100.00
60319;BME280;46163;52.306;5.634;2023-07-31T02:40:50;100672.25;;;15.43;100.00
60319;BME280;46163;52.306;5.634;2023-07-31T02:43:16;100678.19;;;15.45;100.00
60319;BME280;46163;52.306;5.634;2023-07-31T02:45:41;100670.16;;;15.45;100.00
60319;BME280;46163;52.306;5.634;2023-07-31T02:48:07;100675.88;;;15.48;100.00
60319;BME280;46163;52.306;5.634;2023-07-31T02:50:34;100663.28;;;15.49;100.00
60319;BME280;46163;52.306;5.634;2023-07-31T02:53:00;100667.09;;;15.53;100.00
60319;BME280;46163;52.306;5.634;2023-07-31T02:55:25;100677.50;;;15.49;100.00
60319;BME280;46163;52.306;5.634;2023-07-31T02:57:51;100666.06;;;15.54;100.00
60319;BME280;46163;52.306;5.634;2023-07-31T03:00:17;100664.19;;;15.54;100.00
60319;BME280;46163;52.306;5.634;2023-07-31T03:02:43;100656.38;;;15.53;100.00
60319;BME280;46163;52.306;5.634;2023-07-31T03:05:08;100647.19;;;15.49;100.00
60319;BME280;46163;52.306;5.634;2023-07-31T03:07:34;100648.09;;;15.54;100.00
60319;BME280;46163;52.306;5.634;2023-07-31T03:09:59;100646.25;;;15.55;100.00
60319;BME280;46163;52.306;5.634;2023-07-31T03:12:24;100657.44;;;15.64;100.00
60319;BME280;46163;52.306;5.634;2023-07-31T03:14:50;100655.13;;;15.55;100.00
60319;BME280;46163;52.306;5.634;2023-07-31T03:17:15;100658.59;;;15.56;100.00
60319;BME280;46163;52.306;5.634;2023-07-31T03:19:41;100650.06;;;15.59;100.00
60319;BME280;46163;52.306;5.634;2023-07-31T03:22:06;100660.00;;;15.59;100.00
60319;BME280;46163;52.306;5.634;2023-07-31T03:24:32;100658.59;;;15.56;100.00
60319;BME280;46163;52.306;5.634;2023-07-31T03:26:57;100653.34;;;15.61;100.00
60319;BME280;46163;52.306;5.634;2023-07-31T03:29:22;100630.97;;;15.44;100.00
60319;BME280;46163;52.306;5.634;2023-07-31T03:31:48;100660.81;;;15.59;100.00
60319;BME280;46163;52.306;5.634;2023-07-31T03:34:13;100653.00;;;15.58;100.00
60319;BME280;46163;52.306;5.634;2023-07-31T03:36:39;100624.81;;;15.43;100.00
60319;BME280;46163;52.306;5.634;2023-07-31T03:39:04;100632.16;;;15.48;100.00
60319;BME280;46163;52.306;5.634;2023-07-31T03:41:30;100641.34;;;15.52;100.00
60319;BME280;46163;52.306;5.634;2023-07-31T03:43:55;100653.00;;;15.58;100.00
60319;BME280;46163;52.306;5.634;2023-07-31T03:46:24;100650.56;;;15.56;100.00
60319;BME280;46163;52.306;5.634;2023-07-31T03:49:14;100646.00;;;15.57;100.00
60319;BME280;46163;52.306;5.634;2023-07-31T03:51:47;100649.97;;;15.54;100.00
60319;BME280;46163;52.306;5.634;2023-07-31T03:54:18;100624.47;;;15.40;100.00
60319;BME280;46163;52.306;5.634;2023-07-31T03:57:02;100646.81;;;15.57;100.00
60319;BME280;46163;52.306;5.634;2023-07-31T04:00:05;100644.28;;;15.50;100.00
60319;BME280;46163;52.306;5.634;2023-07-31T04:03:02;100639.72;;;15.51;100.00
60319;BME280;46163;52.306;5.634;2023-07-31T05:14:32;100586.97;;;15.28;99.37
60319;BME280;46163;52.306;5.634;2023-07-31T05:17:15;100575.66;;;15.26;99.53
60319;BME280;46163;52.306;5.634;2023-07-31T05:19:57;100577.72;;;15.36;99.85
60319;BME280;46163;52.306;5.634;2023-07-31T05:22:50;100588.94;;;15.33;99.62
60319;BME280;46163;52.306;5.634;2023-07-31T05:25:17;100581.50;;;15.23;99.47
60319;BME280;46163;52.306;5.634;2023-07-31T05:27:46;100571.94;;;15.27;100.00
60319;BME280;46163;52.306;5.634;2023-07-31T05:34:01;100578.47;;;15.19;100.00
60319;BME280;46163;52.306;5.634;2023-07-31T05:43:26;100569.53;;;15.14;100.00
60319;BME280;46163;52.306;5.634;2023-07-31T05:53:09;100555.31;;;15.13;100.00
60319;BME280;46163;52.306;5.634;2023-07-31T06:02:20;100545.72;;;15.17;100.00
60319;BME280;46163;52.306;5.634;2023-07-31T06:05:10;100552.72;;;15.18;100.00
60319;BME280;46163;52.306;5.634;2023-07-31T06:07:40;100533.38;;;15.16;100.00
60319;BME280;46163;52.306;5.634;2023-07-31T06:17:08;100531.03;;;15.20;100.00
60319;BME280;46163;52.306;5.634;2023-07-31T06:20:39;100531.38;;;15.23;100.00
60319;BME280;46163;52.306;5.634;2023-07-31T06:24:09;100522.41;;;15.30;100.00
60319;BME280;46163;52.306;5.634;2023-07-31T06:26:55;100520.91;;;15.22;100.00
60319;BME280;46163;52.306;5.634;2023-07-31T06:29:36;100524.47;;;15.27;100.00
60319;BME280;46163;52.306;5.634;2023-07-31T06:32:54;100490.19;;;15.13;100.00
60319;BME280;46163;52.306;5.634;2023-07-31T06:35:53;100515.16;;;15.30;100.00
60319;BME280;46163;52.306;5.634;2023-07-31T06:38:47;100511.69;;;15.30;100.00
60319;BME280;46163;52.306;5.634;2023-07-31T06:41:40;100510.69;;;15.36;100.00
60319;BME280;46163;52.306;5.634;2023-07-31T06:48:03;100511.50;;;15.36;100.00
60319;BME280;46163;52.306;5.634;2023-07-31T06:51:09;100506.50;;;15.40;100.00
60319;BME280;46163;52.306;5.634;2023-07-31T06:54:08;100488.78;;;15.39;100.00
60319;BME280;46163;52.306;5.634;2023-07-31T07:03:32;100485.13;;;15.45;100.00
60319;BME280;46163;52.306;5.634;2023-07-31T07:06:44;100490.34;;;15.51;100.00
60319;BME280;46163;52.306;5.634;2023-07-31T07:16:49;100493.94;;;15.57;100.00
60319;BME280;46163;52.306;5.634;2023-07-31T07:37:14;100473.34;;;15.74;100.00
60319;BME280;46163;52.306;5.634;2023-07-31T07:53:15;100457.41;;;15.85;100.00
60319;BME280;46163;52.306;5.634;2023-07-31T07:59:00;100452.50;;;15.98;100.00
60319;BME280;46163;52.306;5.634;2023-07-31T08:01:28;100433.81;;;15.87;100.00
60319;BME280;46163;52.306;5.634;2023-07-31T08:10:59;100445.03;;;16.00;100.00
60319;BME280;46163;52.306;5.634;2023-07-31T08:14:21;100440.88;;;16.09;100.00
60319;BME280;46163;52.306;5.634;2023-07-31T08:17:15;100449.22;;;16.13;100.00
60319;BME280;46163;52.306;5.634;2023-07-31T08:20:04;100448.81;;;16.21;100.00
60319;BME280;46163;52.306;5.634;2023-07-31T08:23:06;100450.19;;;16.24;100.00
60319;BME280;46163;52.306;5.634;2023-07-31T08:29:00;100440.41;;;16.34;100.00
60319;BME280;46163;52.306;5.634;2023-07-31T08:35:02;100431.94;;;16.43;100.00
60319;BME280;46163;52.306;5.634;2023-07-31T08:38:23;100428.19;;;16.44;100.00
60319;BME280;46163;52.306;5.634;2023-07-31T08:41:18;100427.75;;;16.52;100.00
60319;BME280;46163;52.306;5.634;2023-07-31T08:47:17;100415.44;;;16.56;99.74
60319;BME280;46163;52.306;5.634;2023-07-31T08:50:14;100430.16;;;16.70;99.80
60319;BME280;46163;52.306;5.634;2023-07-31T08:53:05;100421.97;;;16.65;99.79
60319;BME280;46163;52.306;5.634;2023-07-31T09:00:32;100433.00;;;16.63;99.72
60319;BME280;46163;52.306;5.634;2023-07-31T09:03:53;100424.41;;;16.66;99.55
60319;BME280;46163;52.306;5.634;2023-07-31T09:09:59;100432.72;;;16.65;99.57
60319;BME280;46163;52.306;5.634;2023-07-31T09:12:53;100426.00;;;16.62;100.00
60319;BME280;46163;52.306;5.634;2023-07-31T09:23:15;100425.69;;;16.81;99.76
60319;BME280;46163;52.306;5.634;2023-07-31T09:30:03;100431.00;;;16.98;99.42
60319;BME280;46163;52.306;5.634;2023-07-31T09:32:45;100409.78;;;17.01;99.21
60319;BME280;46163;52.306;5.634;2023-07-31T09:35:38;100408.47;;;17.04;99.35
60319;BME280;46163;52.306;5.634;2023-07-31T09:55:40;100396.78;;;17.47;99.13
60319;BME280;46163;52.306;5.634;2023-07-31T09:59:03;100394.78;;;17.37;98.18
60319;BME280;46163;52.306;5.634;2023-07-31T10:05:18;100393.28;;;17.46;98.91
60319;BME280;46163;52.306;5.634;2023-07-31T10:08:30;100394.38;;;17.50;99.17
60319;BME280;46163;52.306;5.634;2023-07-31T10:11:38;100399.81;;;17.56;98.65
60319;BME280;46163;52.306;5.634;2023-07-31T10:14:31;100393.81;;;17.48;98.11
60319;BME280;46163;52.306;5.634;2023-07-31T10:20:32;100375.81;;;17.49;97.95
60319;BME280;46163;52.306;5.634;2023-07-31T10:23:30;100404.34;;;17.82;97.77
60319;BME280;46163;52.306;5.634;2023-07-31T10:32:52;100381.72;;;17.83;97.17
60319;BME280;46163;52.306;5.634;2023-07-31T10:35:23;100396.00;;;17.89;97.17
60319;BME280;46163;52.306;5.634;2023-07-31T10:38:21;100402.72;;;17.86;97.24
60319;BME280;46163;52.306;5.634;2023-07-31T10:41:39;100401.16;;;17.90;96.76
60319;BME280;46163;52.306;5.634;2023-07-31T10:45:12;100396.00;;;17.84;98.03
60319;BME280;46163;52.306;5.634;2023-07-31T10:51:57;100394.38;;;17.83;97.90
60319;BME280;46163;52.306;5.634;2023-07-31T10:55:31;100401.06;;;17.75;97.91
60319;BME280;46163;52.306;5.634;2023-07-31T11:05:05;100400.78;;;17.76;98.33
60319;BME280;46163;52.306;5.634;2023-07-31T11:12:03;100397.91;;;17.88;96.72
60319;BME280;46163;52.306;5.634;2023-07-31T11:15:11;100379.00;;;17.78;98.07
60319;BME280;46163;52.306;5.634;2023-07-31T11:18:25;100389.25;;;17.81;98.02
60319;BME280;46163;52.306;5.634;2023-07-31T11:20:51;100399.44;;;17.79;97.32
60319;BME280;46163;52.306;5.634;2023-07-31T11:23:32;100380.78;;;17.67;97.32
60319;BME280;46163;52.306;5.634;2023-07-31T11:26:02;100381.66;;;17.73;97.64
60319;BME280;46163;52.306;5.634;2023-07-31T11:28:55;100385.63;;;17.65;97.59
60319;BME280;46163;52.306;5.634;2023-07-31T11:32:26;100396.75;;;17.79;97.57
60319;BME280;46163;52.306;5.634;2023-07-31T11:38:48;100394.91;;;17.52;99.26
60319;BME280;46163;52.306;5.634;2023-07-31T11:44:44;100382.00;;;17.55;99.38
60319;BME280;46163;52.306;5.634;2023-07-31T11:51:24;100382.66;;;17.67;98.50
60319;BME280;46163;52.306;5.634;2023-07-31T11:54:22;100386.38;;;17.61;99.25
60319;BME280;46163;52.306;5.634;2023-07-31T12:04:06;100372.38;;;17.59;98.52
60319;BME280;46163;52.306;5.634;2023-07-31T12:06:49;100386.69;;;17.64;98.24
60319;BME280;46163;52.306;5.634;2023-07-31T12:17:05;100393.31;;;17.84;97.47
60319;BME280;46163;52.306;5.634;2023-07-31T12:29:54;100394.19;;;17.94;98.21
60319;BME280;46163;52.306;5.634;2023-07-31T12:40:03;100379.59;;;17.85;97.74
60319;BME280;46163;52.306;5.634;2023-07-31T12:46:57;100363.69;;;17.84;97.76
60319;BME280;46163;52.306;5.634;2023-07-31T12:49:25;100343.59;;;18.01;97.39
60319;BME280;46163;52.306;5.634;2023-07-31T12:55:40;100350.19;;;17.73;98.19
60319;BME280;46163;52.306;5.634;2023-07-31T13:02:04;100354.22;;;17.76;98.13
60319;BME280;46163;52.306;5.634;2023-07-31T13:08:17;100353.34;;;18.13;96.98
60319;BME280;46163;52.306;5.634;2023-07-31T13:14:49;100361.41;;;18.13;96.05
60319;BME280;46163;52.306;5.634;2023-07-31T13:21:05;100368.75;;;18.22;96.08
60319;BME280;46163;52.306;5.634;2023-07-31T14:00:38;100301.47;;;18.38;94.65
60319;BME280;46163;52.306;5.634;2023-07-31T14:10:57;100306.56;;;18.39;95.87
60319;BME280;46163;52.306;5.634;2023-07-31T14:47:50;100298.56;;;17.87;99.15
60319;BME280;46163;52.306;5.634;2023-07-31T14:50:28;100284.28;;;17.81;99.37
60319;BME280;46163;52.306;5.634;2023-07-31T14:52:56;100283.44;;;17.80;99.66
60319;BME280;46163;52.306;5.634;2023-07-31T14:55:41;100283.22;;;17.87;99.19
60319;BME280;46163;52.306;5.634;2023-07-31T14:58:44;100268.19;;;17.91;98.94
60319;BME280;46163;52.306;5.634;2023-07-31T15:01:20;100251.72;;;17.88;99.11
60319;BME280;46163;52.306;5.634;2023-07-31T15:04:00;100258.50;;;17.90;99.02
60319;BME280;46163;52.306;5.634;2023-07-31T15:27:59;100214.25;;;17.71;98.66
60319;BME280;46163;52.306;5.634;2023-07-31T15:30:25;100197.84;;;17.77;98.79
60319;BME280;46163;52.306;5.634;2023-07-31T15:32:52;100206.75;;;17.78;99.14
60319;BME280;46163;52.306;5.634;2023-07-31T15:35:18;100199.78;;;17.82;99.06
60319;BME280;46163;52.306;5.634;2023-07-31T15:37:43;100194.09;;;17.73;99.29
60319;BME280;46163;52.306;5.634;2023-07-31T15:40:09;100188.38;;;17.65;99.82
60319;BME280;46163;52.306;5.634;2023-07-31T15:42:35;100191.56;;;17.62;100.00
60319;BME280;46163;52.306;5.634;2023-07-31T15:45:05;100180.50;;;17.53;99.76
60319;BME280;46163;52.306;5.634;2023-07-31T15:47:31;100176.69;;;17.44;100.00
60319;BME280;46163;52.306;5.634;2023-07-31T15:49:57;100168.03;;;17.32;100.00
60319;BME280;46163;52.306;5.634;2023-07-31T15:52:23;100165.63;;;17.30;100.00
60319;BME280;46163;52.306;5.634;2023-07-31T15:54:48;100165.34;;;17.37;100.00
60319;BME280;46163;52.306;5.634;2023-07-31T15:57:14;100159.97;;;17.32;100.00
60319;BME280;46163;52.306;5.634;2023-07-31T15:59:39;100155.88;;;17.24;100.00
60319;BME280;46163;52.306;5.634;2023-07-31T16:02:07;100158.84;;;17.22;100.00
60319;BME280;46163;52.306;5.634;2023-07-31T16:04:33;100144.56;;;17.17;100.00
60319;BME280;46163;52.306;5.634;2023-07-31T16:06:59;100135.94;;;17.15;100.00
60319;BME280;46163;52.306;5.634;2023-07-31T16:09:24;100146.16;;;17.18;100.00
60319;BME280;46163;52.306;5.634;2023-07-31T16:11:50;100128.94;;;17.14;100.00
60319;BME280;46163;52.306;5.634;2023-07-31T16:14:16;100127.03;;;17.09;100.00
60319;BME280;46163;52.306;5.634;2023-07-31T16:16:42;100128.66;;;17.10;100.00
60319;BME280;46163;52.306;5.634;2023-07-31T16:19:07;100131.09;;;17.12;100.00
60319;BME280;46163;52.306;5.634;2023-07-31T16:21:33;100116.53;;;17.08;100.00
60319;BME280;46163;52.306;5.634;2023-07-31T16:23:59;100114.38;;;17.05;100.00
60319;BME280;46163;52.306;5.634;2023-07-31T16:26:24;100121.13;;;17.07;100.00
60319;BME280;46163;52.306;5.634;2023-07-31T16:28:50;100110.84;;;16.99;100.00
60319;BME280;46163;52.306;5.634;2023-07-31T16:31:15;100111.69;;;17.05;100.00
60319;BME280;46163;52.306;5.634;2023-07-31T16:33:41;100113.28;;;17.01;100.00
60319;BME280;46163;52.306;5.634;2023-07-31T16:36:06;100110.31;;;17.02;100.00
60319;BME280;46163;52.306;5.634;2023-07-31T16:38:32;100099.06;;;17.05;100.00
60319;BME280;46163;52.306;5.634;2023-07-31T16:40:58;100097.41;;;16.99;100.00
60319;BME280;46163;52.306;5.634;2023-07-31T16:43:23;100095.00;;;17.03;100.00
60319;BME280;46163;52.306;5.634;2023-07-31T16:45:49;100096.34;;;17.00;100.00
60319;BME280;46163;52.306;5.634;2023-07-31T16:48:15;100090.16;;;17.00;100.00
60319;BME280;46163;52.306;5.634;2023-07-31T16:50:40;100077.25;;;16.97;100.00
60319;BME280;46163;52.306;5.634;2023-07-31T16:53:06;100062.25;;;17.06;100.00
60319;BME280;46163;52.306;5.634;2023-07-31T16:55:32;100087.19;;;17.01;100.00
60319;BME280;46163;52.306;5.634;2023-07-31T16:57:59;100070.00;;;16.97;100.00
60319;BME280;46163;52.306;5.634;2023-07-31T17:00:25;100071.56;;;16.88;100.00
60319;BME280;46163;52.306;5.634;2023-07-31T17:02:50;100067.25;;;16.87;100.00
60319;BME280;46163;52.306;5.634;2023-07-31T17:05:16;100074.25;;;16.93;100.00
60319;BME280;46163;52.306;5.634;2023-07-31T17:07:41;100098.13;;;16.84;100.00
60319;BME280;46163;52.306;5.634;2023-07-31T17:10:07;100094.63;;;16.84;100.00
60319;BME280;46163;52.306;5.634;2023-07-31T17:12:33;100090.84;;;16.80;100.00
60319;BME280;46163;52.306;5.634;2023-07-31T17:14:58;100098.66;;;16.81;100.00
60319;BME280;46163;52.306;5.634;2023-07-31T17:17:24;100084.09;;;16.72;100.00
60319;BME280;46163;52.306;5.634;2023-07-31T17:19:51;100077.38;;;16.75;100.00
60319;BME280;46163;52.306;5.634;2023-07-31T17:22:16;100072.00;;;16.75;100.00
60319;BME280;46163;52.306;5.634;2023-07-31T17:24:42;100082.53;;;16.81;100.00
60319;BME280;46163;52.306;5.634;2023-07-31T17:27:07;100075.00;;;16.83;100.00
60319;BME280;46163;52.306;5.634;2023-07-31T17:29:33;100076.88;;;16.78;100.00
60319;BME280;46163;52.306;5.634;2023-07-31T17:31:59;100065.81;;;16.74;100.00
60319;BME280;46163;52.306;5.634;2023-07-31T17:34:24;100069.91;;;16.77;100.00
60319;BME280;46163;52.306;5.634;2023-07-31T17:36:50;100056.97;;;16.74;100.00
60319;BME280;46163;52.306;5.634;2023-07-31T17:39:18;100059.94;;;16.77;100.00
60319;BME280;46163;52.306;5.634;2023-07-31T17:41:43;100047.31;;;16.78;100.00
60319;BME280;46163;52.306;5.634;2023-07-31T17:44:09;100034.38;;;16.75;100.00
60319;BME280;46163;52.306;5.634;2023-07-31T17:46:35;100026.06;;;16.76;100.00
60319;BME280;46163;52.306;5.634;2023-07-31T17:49:00;100016.66;;;16.69;100.00
60319;BME280;46163;52.306;5.634;2023-07-31T17:51:27;100024.50;;;16.80;100.00
60319;BME280;46163;52.306;5.634;2023-07-31T17:53:52;100018.00;;;16.76;100.00
60319;BME280;46163;52.306;5.634;2023-07-31T17:56:19;100013.69;;;16.75;100.00
60319;BME280;46163;52.306;5.634;2023-07-31T17:58:45;100032.81;;;16.84;100.00
60319;BME280;46163;52.306;5.634;2023-07-31T18:01:10;100036.31;;;16.79;100.00
60319;BME280;46163;52.306;5.634;2023-07-31T18:03:36;100026.09;;;16.81;100.00
60319;BME280;46163;52.306;5.634;2023-07-31T18:06:02;100030.72;;;16.86;100.00
60319;BME280;46163;52.306;5.634;2023-07-31T18:08:27;100056.19;;;16.83;100.00
60319;BME280;46163;52.306;5.634;2023-07-31T18:10:53;100039.31;;;16.88;100.00
60319;BME280;46163;52.306;5.634;2023-07-31T18:13:18;100052.22;;;16.91;100.00
60319;BME280;46163;52.306;5.634;2023-07-31T18:15:45;100042.75;;;16.83;100.00
60319;BME280;46163;52.306;5.634;2023-07-31T18:18:11;100034.66;;;16.73;100.00
60319;BME280;46163;52.306;5.634;2023-07-31T18:20:37;100042.25;;;16.86;100.00
60319;BME280;46163;52.306;5.634;2023-07-31T18:23:02;100039.28;;;16.83;100.00
60319;BME280;46163;52.306;5.634;2023-07-31T18:25:28;100032.56;;;16.80;100.00
60319;BME280;46163;52.306;5.634;2023-07-31T18:27:54;100041.97;;;16.83;100.00
60319;BME280;46163;52.306;5.634;2023-07-31T18:30:20;100031.22;;;16.83;100.00
60319;BME280;46163;52.306;5.634;2023-07-31T18:32:45;100033.09;;;16.77;100.00
60319;BME280;46163;52.306;5.634;2023-07-31T18:35:11;100052.44;;;16.79;100.00
60319;BME280;46163;52.306;5.634;2023-07-31T18:37:39;100048.09;;;16.73;100.00
60319;BME280;46163;52.306;5.634;2023-07-31T18:40:05;100037.06;;;16.75;100.00
60319;BME280;46163;52.306;5.634;2023-07-31T18:42:31;100027.44;;;16.79;100.00
60319;BME280;46163;52.306;5.634;2023-07-31T18:44:56;100028.22;;;16.74;100.00
60319;BME280;46163;52.306;5.634;2023-07-31T18:47:22;100025.25;;;16.76;100.00
60319;BME280;46163;52.306;5.634;2023-07-31T18:49:47;100027.13;;;16.70;100.00
60319;BME280;46163;52.306;5.634;2023-07-31T18:52:13;100023.88;;;16.68;100.00
60319;BME280;46163;52.306;5.634;2023-07-31T18:54:38;100029.00;;;16.75;100.00
60319;BME280;46163;52.306;5.634;2023-07-31T18:57:04;100022.28;;;16.72;100.00
60319;BME280;46163;52.306;5.634;2023-07-31T18:59:30;100025.25;;;16.71;100.00
60319;BME280;46163;52.306;5.634;2023-07-31T19:01:56;100013.44;;;16.72;100.00
60319;BME280;46163;52.306;5.634;2023-07-31T19:04:21;99993.81;;;16.76;100.00
60319;BME280;46163;52.306;5.634;2023-07-31T19:06:48;99972.06;;;16.73;100.00
60319;BME280;46163;52.306;5.634;2023-07-31T19:09:13;99979.63;;;16.81;100.00
60319;BME280;46163;52.306;5.634;2023-07-31T19:11:39;99972.06;;;16.73;100.00
60319;BME280;46163;52.306;5.634;2023-07-31T19:14:05;99987.13;;;16.79;100.00
60319;BME280;46163;52.306;5.634;2023-07-31T19:16:31;99988.44;;;16.76;100.00
60319;BME280;46163;52.306;5.634;2023-07-31T19:18:57;99978.78;;;16.75;100.00
60319;BME280;46163;52.306;5.634;2023-07-31T19:21:22;99970.13;;;16.68;100.00
60319;BME280;46163;52.306;5.634;2023-07-31T19:23:48;99981.47;;;16.75;100.00
60319;BME280;46163;52.306;5.634;2023-07-31T19:28:41;99951.28;;;16.63;100.00
60319;BME280;46163;52.306;5.634;2023-07-31T19:31:06;99977.97;;;16.75;100.00
60319;BME280;46163;52.306;5.634;2023-07-31T19:33:34;99970.72;;;16.70;100.00
60319;BME280;46163;52.306;5.634;2023-07-31T19:36:04;99963.13;;;16.67;100.00
60319;BME280;46163;52.306;5.634;2023-07-31T19:38:31;99959.38;;;16.68;100.00
60319;BME280;46163;52.306;5.634;2023-07-31T19:43:28;99936.47;;;16.55;100.00
60319;BME280;46163;52.306;5.634;2023-07-31T19:45:54;99947.00;;;16.62;100.00
60319;BME280;46163;52.306;5.634;2023-07-31T19:48:19;99940.78;;;16.56;100.00
60319;BME280;46163;52.306;5.634;2023-07-31T19:50:47;99939.44;;;16.54;100.00
60319;BME280;46163;52.306;5.634;2023-07-31T19:53:12;99939.97;;;16.51;100.00
60319;BME280;46163;52.306;5.634;2023-07-31T19:55:38;99929.47;;;16.44;100.00
60319;BME280;46163;52.306;5.634;2023-07-31T19:58:03;99946.91;;;16.47;100.00
60319;BME280;46163;52.306;5.634;2023-07-31T20:00:30;99928.84;;;16.32;100.00
60319;BME280;46163;52.306;5.634;2023-07-31T20:02:55;99941.50;;;16.36;100.00
60319;BME280;46163;52.306;5.634;2023-07-31T20:05:21;99935.81;;;16.33;100.00